createdAt,value
2018-08-22T00:01:05.841Z,11.78
2018-08-22T00:03:34.396Z,9.33
2018-08-22T00:06:02.943Z,8.13
2018-08-22T00:08:36.887Z,11.88
2018-08-22T00:11:05.460Z,10.95
2018-08-22T00:13:33.987Z,10.68
2018-08-22T00:16:02.568Z,9.95
2018-08-22T00:18:31.095Z,10.98
2018-08-22T00:20:59.655Z,9.95
2018-08-22T00:23:28.163Z,11.30
2018-08-22T00:25:56.731Z,12.80
2018-08-22T00:28:25.275Z,11.03
2018-08-22T00:30:53.835Z,9.58
2018-08-22T00:33:22.376Z,8.75
2018-08-22T00:35:50.923Z,9.75
2018-08-22T00:38:19.459Z,9.88
2018-08-22T00:40:48.011Z,14.28
2018-08-22T00:43:16.640Z,9.50
2018-08-22T00:45:45.170Z,9.00
2018-08-22T00:48:13.687Z,10.58
2018-08-22T00:50:42.227Z,13.93
2018-08-22T00:53:10.744Z,13.15
2018-08-22T00:55:39.295Z,10.03
2018-08-22T00:58:07.835Z,9.45
2018-08-22T01:00:36.380Z,11.25
2018-08-22T01:03:04.932Z,8.43
2018-08-22T01:05:33.487Z,13.60
2018-08-22T01:08:02.007Z,11.80
2018-08-22T01:10:30.548Z,11.90
2018-08-22T01:12:59.074Z,10.35
2018-08-22T01:15:27.611Z,10.23
2018-08-22T01:17:56.142Z,9.70
2018-08-22T01:20:24.760Z,11.90
2018-08-22T01:22:53.307Z,9.58
2018-08-22T01:25:21.883Z,10.90
2018-08-22T01:27:50.443Z,9.68
2018-08-22T01:30:18.995Z,9.55
2018-08-22T01:32:47.559Z,8.93
2018-08-22T01:35:16.127Z,9.08
2018-08-22T01:37:44.646Z,11.65
2018-08-22T01:40:13.211Z,9.48
2018-08-22T01:42:41.723Z,9.85
2018-08-22T01:45:10.272Z,11.03
2018-08-22T01:47:38.817Z,9.23
2018-08-22T01:50:07.338Z,8.83
2018-08-22T01:52:35.907Z,11.45
2018-08-22T01:55:04.960Z,10.28
2018-08-22T01:57:33.508Z,11.43
2018-08-22T02:00:02.075Z,10.93
2018-08-22T02:02:30.639Z,10.55
2018-08-22T02:04:59.169Z,9.78
2018-08-22T02:07:27.727Z,11.00
2018-08-22T02:09:56.279Z,11.10
2018-08-22T02:12:24.823Z,9.85
2018-08-22T02:14:53.351Z,11.60
2018-08-22T02:17:21.901Z,10.18
2018-08-22T02:19:50.420Z,11.88
2018-08-22T02:22:18.959Z,11.20
2018-08-22T02:24:47.455Z,12.25
2018-08-22T02:27:15.951Z,12.63
2018-08-22T02:29:44.420Z,13.75
2018-08-22T02:32:12.912Z,10.55
2018-08-22T02:34:41.387Z,10.50
2018-08-22T02:37:09.869Z,10.95
2018-08-22T02:39:38.349Z,11.20
2018-08-22T02:42:06.856Z,13.65
2018-08-22T02:44:35.327Z,11.28
2018-08-22T02:47:03.824Z,12.75
2018-08-22T02:49:32.292Z,11.65
2018-08-22T02:52:00.783Z,11.57
2018-08-22T02:54:29.236Z,12.28
2018-08-22T02:56:57.739Z,13.75
2018-08-22T02:59:26.202Z,10.03
2018-08-22T03:01:54.660Z,10.45
2018-08-22T03:04:23.136Z,11.43
2018-08-22T03:06:51.628Z,11.97
2018-08-22T03:09:20.104Z,11.93
2018-08-22T03:11:48.595Z,11.53
2018-08-22T03:14:17.055Z,14.45
2018-08-22T03:16:45.557Z,12.85
2018-08-22T03:19:14.034Z,13.08
2018-08-22T03:21:42.532Z,13.48
2018-08-22T03:24:11.003Z,11.93
2018-08-22T03:26:39.569Z,12.35
2018-08-22T03:29:08.116Z,11.30
2018-08-22T03:31:36.658Z,12.78
2018-08-22T03:34:05.187Z,10.58
2018-08-22T03:36:33.731Z,14.68
2018-08-22T03:39:02.296Z,13.15
2018-08-22T03:41:30.813Z,13.98
2018-08-22T03:43:59.348Z,11.20
2018-08-22T03:46:27.860Z,14.15
2018-08-22T03:48:56.388Z,11.50
2018-08-22T03:51:24.924Z,11.20
2018-08-22T03:53:53.459Z,12.75
2018-08-22T03:56:22.007Z,15.53
2018-08-22T03:58:50.552Z,13.32
2018-08-22T04:01:19.062Z,13.50
2018-08-22T04:03:47.612Z,12.55
2018-08-22T04:06:16.155Z,12.73
2018-08-22T04:08:44.676Z,13.55
2018-08-22T04:11:13.184Z,12.68
2018-08-22T04:13:41.731Z,16.50
2018-08-22T04:16:10.228Z,14.43
2018-08-22T04:18:38.775Z,11.50
2018-08-22T04:21:07.299Z,13.72
2018-08-22T04:23:35.839Z,14.40
2018-08-22T04:26:04.399Z,12.58
2018-08-22T04:28:32.983Z,15.88
2018-08-22T04:31:01.695Z,12.43
2018-08-22T04:33:30.140Z,15.88
2018-08-22T04:35:58.672Z,10.85
2018-08-22T04:38:27.223Z,15.75
2018-08-22T04:40:55.732Z,11.57
2018-08-22T04:43:24.259Z,11.60
2018-08-22T04:45:52.827Z,14.95
2018-08-22T04:48:21.372Z,11.75
2018-08-22T04:50:49.900Z,12.18
2018-08-22T04:53:18.431Z,13.90
2018-08-22T04:55:46.947Z,16.48
2018-08-22T04:58:15.477Z,14.78
2018-08-22T05:00:43.999Z,13.90
2018-08-22T05:03:12.527Z,11.48
2018-08-22T05:05:41.044Z,11.70
2018-08-22T05:08:09.583Z,12.35
2018-08-22T05:10:38.131Z,13.60
2018-08-22T05:13:06.671Z,11.30
2018-08-22T05:15:35.196Z,10.63
2018-08-22T05:18:03.736Z,10.20
2018-08-22T05:20:32.268Z,11.00
2018-08-22T05:23:00.815Z,10.28
2018-08-22T05:25:29.706Z,9.30
2018-08-22T05:27:58.282Z,10.18
2018-08-22T05:30:26.805Z,9.18
2018-08-22T05:32:55.374Z,10.40
2018-08-22T05:35:23.927Z,10.48
2018-08-22T05:37:52.459Z,10.55
2018-08-22T05:40:21.016Z,11.70
2018-08-22T05:42:49.519Z,9.40
2018-08-22T05:45:18.063Z,10.23
2018-08-22T05:47:46.627Z,8.65
2018-08-22T05:50:15.180Z,8.40
2018-08-22T05:52:43.711Z,9.13
2018-08-22T05:55:12.256Z,12.20
2018-08-22T05:57:40.817Z,8.85
2018-08-22T06:00:09.343Z,7.78
2018-08-22T06:02:37.844Z,8.45
2018-08-22T06:05:06.395Z,8.13
2018-08-22T06:07:34.892Z,6.37
2018-08-22T06:10:03.466Z,7.75
2018-08-22T06:12:31.968Z,8.25
2018-08-22T06:15:00.477Z,6.85
2018-08-22T06:17:28.966Z,6.97
2018-08-22T06:19:57.474Z,6.55
2018-08-22T06:22:26.015Z,7.90
2018-08-22T06:24:54.596Z,6.92
2018-08-22T06:27:23.100Z,6.85
2018-08-22T06:29:51.720Z,7.03
2018-08-22T06:32:20.241Z,6.25
2018-08-22T06:34:48.777Z,6.85
2018-08-22T06:37:17.708Z,7.25
2018-08-22T06:39:46.235Z,7.90
2018-08-22T06:42:14.740Z,6.78
2018-08-22T06:44:43.255Z,6.20
2018-08-22T06:47:11.764Z,6.60
2018-08-22T06:49:40.301Z,6.92
2018-08-22T06:52:08.815Z,5.97
2018-08-22T06:54:37.320Z,7.87
2018-08-22T06:57:05.894Z,5.53
2018-08-22T06:59:34.410Z,9.33
2018-08-22T07:02:02.935Z,9.10
2018-08-22T07:04:31.491Z,8.25
2018-08-22T07:07:00.031Z,9.85
2018-08-22T07:09:28.563Z,7.22
2018-08-22T07:11:57.075Z,6.80
2018-08-22T07:14:25.608Z,6.75
2018-08-22T07:16:54.140Z,6.70
2018-08-22T07:19:22.675Z,4.72
2018-08-22T07:21:51.186Z,7.85
2018-08-22T07:24:19.680Z,7.22
2018-08-22T07:26:48.122Z,6.08
2018-08-22T07:29:16.660Z,5.03
2018-08-22T07:31:45.118Z,5.60
2018-08-22T07:34:13.574Z,5.55
2018-08-22T07:36:42.041Z,7.05
2018-08-22T07:39:12.402Z,7.45
2018-08-22T07:41:41.060Z,9.20
2018-08-22T07:44:10.477Z,5.75
2018-08-22T07:46:38.950Z,6.10
2018-08-22T07:49:07.408Z,9.88
2018-08-22T07:51:35.968Z,8.40
2018-08-22T07:54:04.525Z,5.55
2018-08-22T07:56:33.030Z,10.15
2018-08-22T07:59:11.968Z,8.48
2018-08-22T08:01:40.453Z,7.10
2018-08-22T08:04:10.376Z,9.00
2018-08-22T08:06:38.872Z,6.17
2018-08-22T08:09:10.207Z,6.03
2018-08-22T08:11:38.803Z,7.03
2018-08-22T08:14:07.539Z,5.75
2018-08-22T08:16:35.988Z,5.55
2018-08-22T08:19:04.828Z,7.28
2018-08-22T08:21:33.291Z,6.53
2018-08-22T08:24:01.728Z,6.12
2018-08-22T08:26:30.298Z,5.08
2018-08-22T08:28:58.816Z,7.62
2018-08-22T08:31:27.364Z,6.05
2018-08-22T08:33:55.929Z,6.83
2018-08-22T08:36:24.464Z,5.03
2018-08-22T08:38:52.984Z,5.40
2018-08-22T08:41:21.557Z,5.95
2018-08-22T08:43:50.099Z,8.03
2018-08-22T08:46:18.638Z,8.00
2018-08-22T08:48:47.184Z,5.28
2018-08-22T08:51:15.720Z,6.20
2018-08-22T08:53:44.248Z,6.47
2018-08-22T08:56:12.795Z,6.05
2018-08-22T08:58:41.319Z,7.85
2018-08-22T09:01:09.864Z,6.55
2018-08-22T09:03:38.408Z,7.95
2018-08-22T09:06:06.948Z,9.20
2018-08-22T09:08:35.469Z,5.05
2018-08-22T09:11:04.027Z,5.53
2018-08-22T09:13:32.549Z,5.42
2018-08-22T09:16:01.128Z,7.30
2018-08-22T09:18:29.657Z,7.37
2018-08-22T09:20:58.227Z,6.72
2018-08-22T09:23:26.752Z,13.62
2018-08-22T09:25:55.248Z,7.55
2018-08-22T09:28:23.709Z,6.12
2018-08-22T09:30:52.189Z,6.37
2018-08-22T09:33:20.655Z,6.55
2018-08-22T09:35:49.160Z,10.63
2018-08-22T09:38:17.636Z,8.70
2018-08-22T09:40:46.143Z,8.20
2018-08-22T09:43:14.664Z,6.45
2018-08-22T09:45:43.108Z,10.23
2018-08-22T09:48:11.604Z,6.55
2018-08-22T09:50:40.063Z,8.08
2018-08-22T09:53:08.572Z,7.85
2018-08-22T09:55:37.033Z,9.08
2018-08-22T09:58:05.692Z,8.20
2018-08-22T10:00:40.293Z,8.88
2018-08-22T10:03:09.205Z,6.25
2018-08-22T10:05:37.664Z,7.03
2018-08-22T10:08:06.140Z,8.25
2018-08-22T10:10:34.593Z,6.42
2018-08-22T10:13:03.066Z,9.48
2018-08-22T10:15:31.512Z,6.05
2018-08-22T10:17:59.988Z,6.12
2018-08-22T10:20:28.457Z,12.15
2018-08-22T10:22:56.944Z,6.22
2018-08-22T10:25:25.439Z,6.33
2018-08-22T10:27:53.900Z,7.00
2018-08-22T10:30:22.347Z,10.18
2018-08-22T10:32:50.900Z,6.40
2018-08-22T10:35:19.288Z,6.12
2018-08-22T10:37:47.769Z,7.62
2018-08-22T10:40:16.224Z,6.80
2018-08-22T10:42:44.700Z,7.20
2018-08-22T10:45:13.164Z,5.28
2018-08-22T10:47:41.659Z,5.70
2018-08-22T10:50:10.121Z,7.12
2018-08-22T10:52:38.583Z,5.35
2018-08-22T10:55:07.051Z,6.00
2018-08-22T10:57:35.515Z,6.75
2018-08-22T11:00:04.152Z,6.33
2018-08-22T11:02:32.616Z,8.15
2018-08-22T11:05:01.107Z,6.10
2018-08-22T11:07:29.540Z,5.47
2018-08-22T11:09:58.052Z,5.45
2018-08-22T11:12:26.494Z,5.30
2018-08-22T11:14:54.947Z,6.40
2018-08-22T11:17:23.391Z,5.58
2018-08-22T11:19:51.873Z,6.03
2018-08-22T11:22:31.646Z,7.10
2018-08-22T11:25:11.296Z,4.40
2018-08-22T11:27:51.077Z,5.47
2018-08-22T11:30:30.848Z,5.95
2018-08-22T11:33:10.489Z,4.80
2018-08-22T11:35:37.828Z,5.17
2018-08-22T11:38:06.320Z,5.33
2018-08-22T11:40:34.867Z,4.58
2018-08-22T11:43:03.355Z,4.75
2018-08-22T11:45:31.871Z,4.22
2018-08-22T11:48:00.363Z,4.75
2018-08-22T11:50:28.879Z,4.75
2018-08-22T11:52:57.375Z,4.65
2018-08-22T11:55:25.891Z,4.87
2018-08-22T11:57:54.400Z,4.47
2018-08-22T12:00:22.933Z,4.03
2018-08-22T12:02:51.476Z,4.28
2018-08-22T12:05:20.099Z,5.78
2018-08-22T12:07:48.621Z,4.08
2018-08-22T12:10:17.144Z,4.87
2018-08-22T12:12:45.660Z,4.47
2018-08-22T12:15:14.173Z,4.45
2018-08-22T12:17:42.668Z,4.60
2018-08-22T12:20:11.277Z,4.37
2018-08-22T12:22:39.788Z,6.33
2018-08-22T12:25:08.304Z,5.72
2018-08-22T12:27:36.785Z,7.87
2018-08-22T12:30:05.349Z,6.35
2018-08-22T12:32:33.787Z,5.00
2018-08-22T12:35:02.286Z,4.15
2018-08-22T12:37:30.748Z,5.00
2018-08-22T12:39:59.200Z,4.45
2018-08-22T12:42:27.635Z,4.87
2018-08-22T12:44:56.104Z,5.15
2018-08-22T12:47:24.535Z,5.35
2018-08-22T12:49:53.019Z,6.03
2018-08-22T12:52:21.472Z,5.45
2018-08-22T12:54:49.956Z,4.85
2018-08-22T12:57:18.575Z,4.00
2018-08-22T12:59:46.991Z,5.95
2018-08-22T13:02:15.453Z,4.53
2018-08-22T13:04:44.097Z,7.17
2018-08-22T13:07:12.452Z,7.83
2018-08-22T13:09:40.920Z,4.80
2018-08-22T13:12:09.361Z,4.80
2018-08-22T13:14:37.801Z,5.33
2018-08-22T13:17:06.321Z,4.78
2018-08-22T13:19:34.716Z,5.70
2018-08-22T13:22:03.171Z,4.40
2018-08-22T13:24:31.725Z,4.78
2018-08-22T13:27:00.219Z,5.28
2018-08-22T13:29:28.715Z,5.85
2018-08-22T13:31:57.252Z,4.20
2018-08-22T13:34:25.746Z,4.30
2018-08-22T13:36:54.255Z,4.92
2018-08-22T13:39:22.751Z,4.42
2018-08-22T13:41:51.679Z,5.95
2018-08-22T13:44:20.195Z,4.58
2018-08-22T13:46:48.720Z,4.47
2018-08-22T13:49:17.228Z,4.70
2018-08-22T13:51:45.762Z,7.10
2018-08-22T13:54:14.266Z,6.03
2018-08-22T13:56:42.808Z,7.80
2018-08-22T13:59:11.393Z,5.00
2018-08-22T14:01:39.935Z,4.42
2018-08-22T14:04:08.447Z,5.30
2018-08-22T14:06:36.955Z,4.70
2018-08-22T14:09:08.078Z,5.05
2018-08-22T14:11:36.639Z,4.22
2018-08-22T14:14:05.183Z,4.70
2018-08-22T14:16:33.711Z,5.15
2018-08-22T14:19:02.215Z,4.40
2018-08-22T14:21:30.779Z,7.20
2018-08-22T14:23:59.275Z,6.65
2018-08-22T14:26:27.928Z,5.78
2018-08-22T14:28:56.424Z,5.65
2018-08-22T14:31:24.941Z,4.17
2018-08-22T14:33:53.450Z,6.75
2018-08-22T14:36:21.935Z,6.67
2018-08-22T14:38:50.393Z,7.70
2018-08-22T14:41:18.835Z,6.03
2018-08-22T14:43:47.278Z,5.83
2018-08-22T14:46:15.764Z,5.78
2018-08-22T14:48:44.217Z,5.62
2018-08-22T14:51:12.701Z,4.60
2018-08-22T14:53:41.159Z,4.97
2018-08-22T14:56:09.641Z,6.10
2018-08-22T14:58:38.264Z,6.45
2018-08-22T15:01:07.093Z,5.70
2018-08-22T15:03:35.789Z,4.67
2018-08-22T15:06:04.031Z,6.90
2018-08-22T15:08:32.485Z,6.30
2018-08-22T15:11:00.981Z,4.90
2018-08-22T15:13:29.438Z,5.15
2018-08-22T15:15:57.888Z,8.05
2018-08-22T15:18:26.349Z,5.00
2018-08-22T15:20:54.808Z,5.12
2018-08-22T15:23:23.289Z,6.25
2018-08-22T15:25:51.790Z,5.20
2018-08-22T15:28:20.249Z,5.17
2018-08-22T15:30:48.701Z,7.22
2018-08-22T15:33:17.167Z,4.97
2018-08-22T15:35:45.641Z,5.87
2018-08-22T15:38:14.112Z,7.12
2018-08-22T15:40:42.589Z,4.95
2018-08-22T15:43:11.099Z,5.45
2018-08-22T15:45:39.562Z,9.23
2018-08-22T15:48:08.039Z,8.63
2018-08-22T15:50:36.506Z,5.28
2018-08-22T15:53:05.068Z,5.35
2018-08-22T15:55:33.520Z,6.67
2018-08-22T15:58:04.011Z,5.72
2018-08-22T16:00:42.015Z,5.60
2018-08-22T16:03:10.890Z,6.40
2018-08-22T16:05:40.483Z,5.83
2018-08-22T16:08:09.499Z,6.10
2018-08-22T16:10:37.939Z,6.70
2018-08-22T16:13:17.168Z,7.85
2018-08-22T16:15:46.460Z,6.95
2018-08-22T16:18:14.964Z,7.65
2018-08-22T16:20:52.939Z,7.25
2018-08-22T16:23:21.580Z,5.55
2018-08-22T16:25:51.260Z,7.47
2018-08-22T16:28:20.018Z,5.67
2018-08-22T16:30:56.952Z,7.92
2018-08-22T16:33:19.796Z,7.53
2018-08-22T16:35:48.351Z,5.15
2018-08-22T16:38:16.900Z,7.08
2018-08-22T16:40:49.327Z,6.15
2018-08-22T16:43:34.408Z,6.60
2018-08-22T16:46:05.669Z,6.00
2018-08-22T16:48:34.188Z,8.08
2018-08-22T16:51:02.715Z,6.47
2018-08-22T16:53:31.252Z,5.83
2018-08-22T16:55:59.755Z,6.35
2018-08-22T16:58:28.479Z,6.30
2018-08-22T17:00:57.016Z,6.75
2018-08-22T17:03:25.801Z,5.70
2018-08-22T17:06:03.376Z,5.12
2018-08-22T17:08:31.897Z,6.03
2018-08-22T17:11:04.579Z,5.25
2018-08-22T17:13:45.450Z,6.83
2018-08-22T17:16:13.995Z,5.58
2018-08-22T17:18:42.544Z,8.75
2018-08-22T17:21:11.212Z,6.17
2018-08-22T17:23:40.100Z,5.40
2018-08-22T17:26:14.623Z,6.80
2018-08-22T17:28:45.471Z,6.20
2018-08-22T17:31:14.624Z,4.85
2018-08-22T17:33:46.960Z,4.92
2018-08-22T17:36:15.501Z,5.28
2018-08-22T17:38:48.230Z,7.20
2018-08-22T17:41:17.364Z,8.03
2018-08-22T17:44:12.285Z,8.50
2018-08-22T17:46:44.006Z,7.67
2018-08-22T17:49:12.655Z,6.47
2018-08-22T17:51:57.577Z,9.38
2018-08-22T17:54:26.577Z,5.97
2018-08-22T17:57:07.589Z,6.45
2018-08-22T17:59:36.229Z,6.35
2018-08-22T18:02:04.903Z,8.28
2018-08-22T18:04:44.825Z,7.55
2018-08-22T18:07:13.340Z,6.53
2018-08-22T18:09:41.887Z,5.58
2018-08-22T18:12:10.424Z,5.92
2018-08-22T18:14:39.122Z,30.12
2018-08-22T18:17:07.708Z,9.08
2018-08-22T18:19:38.100Z,10.30
2018-08-22T18:22:06.709Z,7.72
2018-08-22T18:24:44.105Z,9.68
2018-08-22T18:27:12.706Z,9.58
2018-08-22T18:29:44.016Z,8.70
2018-08-22T18:32:13.217Z,15.32
2018-08-22T18:34:57.534Z,11.10
2018-08-22T18:37:27.576Z,12.70
2018-08-22T18:40:07.184Z,10.32
2018-08-22T18:42:35.684Z,12.73
2018-08-22T18:45:04.292Z,16.95
2018-08-22T18:47:33.955Z,16.07
2018-08-22T18:50:02.516Z,19.50
2018-08-22T18:52:31.560Z,12.33
2018-08-22T18:55:00.647Z,10.40
2018-08-22T18:57:29.425Z,14.58
2018-08-22T18:59:58.016Z,13.18
2018-08-22T19:02:26.643Z,11.70
2018-08-22T19:05:01.244Z,19.30
2018-08-22T19:07:30.252Z,13.65
2018-08-22T19:09:58.759Z,17.50
2018-08-22T19:12:27.292Z,17.02
2018-08-22T19:14:55.835Z,13.93
2018-08-22T19:17:24.386Z,23.45
2018-08-22T19:19:53.426Z,15.10
2018-08-22T19:22:21.931Z,17.37
2018-08-22T19:25:03.535Z,15.10
2018-08-22T19:27:33.608Z,13.98
2018-08-22T19:30:02.879Z,12.15
2018-08-22T19:32:31.327Z,12.68
2018-08-22T19:34:59.759Z,15.32
2018-08-22T19:37:28.223Z,19.30
2018-08-22T19:40:05.352Z,12.07
2018-08-22T19:42:35.267Z,17.65
2018-08-22T19:45:14.144Z,9.80
2018-08-22T19:47:42.600Z,12.10
2018-08-22T19:50:11.081Z,10.38
2018-08-22T19:52:39.576Z,12.07
2018-08-22T19:55:08.360Z,11.43
2018-08-22T19:57:39.166Z,14.87
2018-08-22T20:00:09.600Z,17.65
2018-08-22T20:02:38.348Z,14.25
2018-08-22T20:05:08.015Z,15.65
2018-08-22T20:07:36.623Z,12.00
2018-08-22T20:10:05.185Z,9.53
2018-08-22T20:12:54.231Z,12.15
2018-08-22T20:15:22.855Z,16.30
2018-08-22T20:17:52.485Z,11.73
2018-08-22T20:20:21.584Z,10.18
2018-08-22T20:22:54.101Z,13.45
2018-08-22T20:25:22.598Z,14.18
2018-08-22T20:27:51.094Z,10.30
2018-08-22T20:30:20.639Z,8.25
2018-08-22T20:33:10.311Z,11.00
2018-08-22T20:35:40.496Z,8.93
2018-08-22T20:38:10.052Z,10.05
2018-08-22T20:40:38.527Z,9.83
2018-08-22T20:43:13.598Z,10.40
2018-08-22T20:45:43.672Z,10.43
2018-08-22T20:48:13.399Z,8.05
2018-08-22T20:50:43.868Z,10.35
2018-08-22T20:53:14.180Z,8.70
2018-08-22T20:55:42.704Z,12.43
2018-08-22T20:58:31.763Z,10.63
2018-08-22T21:01:00.741Z,10.72
2018-08-22T21:03:29.207Z,10.48
2018-08-22T21:05:57.651Z,10.85
2018-08-22T21:08:26.192Z,8.48
2018-08-22T21:10:54.607Z,9.55
2018-08-22T21:13:28.763Z,12.47
2018-08-22T21:15:57.654Z,11.90
2018-08-22T21:18:26.205Z,9.98
2018-08-22T21:20:54.759Z,11.43
2018-08-22T21:23:23.271Z,16.57
2018-08-22T21:25:51.849Z,12.20
2018-08-22T21:28:25.717Z,11.70
2018-08-22T21:30:58.868Z,12.00
2018-08-22T21:33:28.082Z,14.23
2018-08-22T21:35:56.596Z,11.15
2018-08-22T21:38:25.119Z,11.03
2018-08-22T21:40:53.631Z,11.95
2018-08-22T21:43:22.571Z,10.72
2018-08-22T21:45:51.691Z,12.25
2018-08-22T21:48:23.059Z,10.55
2018-08-22T21:50:51.611Z,12.80
2018-08-22T21:53:20.139Z,10.15
2018-08-22T21:55:48.992Z,10.95
2018-08-22T21:58:17.539Z,10.13
2018-08-22T22:00:46.111Z,9.83
2018-08-22T22:03:15.120Z,9.93
2018-08-22T22:06:03.951Z,12.60
2018-08-22T22:08:32.626Z,10.65
2018-08-22T22:11:07.282Z,11.97
2018-08-22T22:13:35.804Z,13.48
2018-08-22T22:16:05.506Z,10.20
2018-08-22T22:18:34.824Z,12.47
2018-08-22T22:21:14.859Z,9.40
2018-08-22T22:23:48.291Z,11.05
2018-08-22T22:26:17.972Z,14.55
2018-08-22T22:28:46.426Z,12.53
2018-08-22T22:31:15.936Z,9.93
2018-08-22T22:34:02.823Z,9.38
2018-08-22T22:36:32.259Z,9.85
2018-08-22T22:39:00.734Z,10.95
2018-08-22T22:41:30.440Z,8.98
2018-08-22T22:43:58.914Z,10.65
2018-08-22T22:46:27.470Z,12.58
2018-08-22T22:48:55.948Z,13.62
2018-08-22T22:51:24.403Z,14.70
2018-08-22T22:53:52.863Z,17.00
2018-08-22T22:56:21.307Z,15.90
2018-08-22T22:58:49.796Z,12.65
2018-08-22T23:01:18.273Z,13.32
2018-08-22T23:03:46.715Z,17.55
2018-08-22T23:06:15.179Z,16.55
2018-08-22T23:08:44.527Z,12.47
2018-08-22T23:11:12.991Z,12.73
2018-08-22T23:13:41.467Z,14.60
2018-08-22T23:16:09.956Z,15.32
2018-08-22T23:18:38.471Z,12.30
2018-08-22T23:21:06.934Z,11.83
2018-08-22T23:23:36.354Z,16.42
2018-08-22T23:26:18.820Z,13.75
2018-08-22T23:28:47.344Z,15.20
2018-08-22T23:31:16.247Z,14.55
2018-08-22T23:33:44.695Z,12.85
2018-08-22T23:36:13.190Z,13.45
2018-08-22T23:38:41.626Z,14.10
2018-08-22T23:41:10.099Z,15.18
2018-08-22T23:43:43.974Z,16.52
2018-08-22T23:46:13.476Z,13.70
2018-08-22T23:48:42.134Z,14.68
2018-08-22T23:51:11.872Z,13.83
2018-08-22T23:53:47.015Z,12.68
2018-08-22T23:56:20.278Z,23.42
2018-08-22T23:58:49.503Z,12.37
